Decoded Metar for DAUH (HASSI-MESSAOUD in ALGERIA) (IATA:HME) | Meteo·Mobile Aviation Weather
aviador You're here:

DAUH Decoded Metar

HASSI-MESSAOUD in ALGERIA
Report Time2019-09-15 11:30:00
UTC Time2019-09-15 12:05:33
Flight Rules vfr VFR
Wind050° at 11 kt
W.Decomp.*RWY 36: 7.1 kt HW 8.4 kt RCW
Visibility9999 m
Phenomena:N/A
Clouds:N/A
Expected CloudBase > 10,000 ft AGL from Temp-Dew spread
CeilingNone
Temp35°C (ISA +21)
Dew Point10°C (22% RH)
Heat Index33.3°C
AAT31.1°C
QNH1020 hPa
Density Alt2,776 ft
Elevation466 ft
Report Wrong Elevation
Raw Report
DAUH 151130Z 05011KT CAVOK 35/10 Q1020=

Extra information for DAUH:More info

Metar Taf Metar & Taf Last 4 Metars F.Rules Stats Wind Profile Meteogram Temp Stats Airport Information Weather charts Add Link Nearby VenuesMetar ALERT Operation Metar Decoded Social comments